createdAt,value
2023-03-24T00:01:05.604Z,92.30
2023-03-24T00:03:34.394Z,92.50
2023-03-24T00:06:04.536Z,92.90
2023-03-24T00:08:37.697Z,93.40
2023-03-24T00:11:08.910Z,93.00
2023-03-24T00:13:38.096Z,93.60
2023-03-24T00:16:09.371Z,93.10
2023-03-24T00:18:39.217Z,93.00
2023-03-24T00:21:08.990Z,93.10
2023-03-24T00:23:36.967Z,93.20
2023-03-24T00:26:08.910Z,93.20
2023-03-24T00:28:39.080Z,93.00
2023-03-24T00:31:09.643Z,93.10
2023-03-24T00:33:40.328Z,92.80
2023-03-24T00:36:11.951Z,92.60
2023-03-24T00:38:41.824Z,92.60
2023-03-24T00:41:11.618Z,92.60
2023-03-24T00:43:39.832Z,93.00
2023-03-24T00:46:14.069Z,93.50
2023-03-24T00:48:42.511Z,93.60
2023-03-24T00:51:11.014Z,93.80
2023-03-24T00:53:43.932Z,93.70
2023-03-24T00:56:15.650Z,93.30
2023-03-24T00:58:43.554Z,93.60
2023-03-24T01:01:12.807Z,93.70
2023-03-24T01:03:50.698Z,93.80
2023-03-24T01:06:19.125Z,93.80
2023-03-24T01:08:49.175Z,93.60
2023-03-24T01:11:17.898Z,93.50
2023-03-24T01:13:45.870Z,93.70
2023-03-24T01:16:15.451Z,93.60
2023-03-24T01:18:43.491Z,93.40
2023-03-24T01:21:12.839Z,93.50
2023-03-24T01:23:42.865Z,93.40
2023-03-24T01:26:11.974Z,93.30
2023-03-24T01:28:43.640Z,92.90
2023-03-24T01:31:12.356Z,92.50
2023-03-24T01:33:41.765Z,92.10
2023-03-24T01:36:10.332Z,91.80
2023-03-24T01:38:39.060Z,91.50
2023-03-24T01:41:08.327Z,91.20
2023-03-24T01:43:37.276Z,91.00
2023-03-24T01:46:19.709Z,90.70
2023-03-24T01:48:53.046Z,90.70
2023-03-24T01:51:24.698Z,90.60
2023-03-24T01:53:56.691Z,90.50
2023-03-24T01:56:26.260Z,90.50
2023-03-24T01:58:58.707Z,90.50
2023-03-24T02:01:30.007Z,90.90
2023-03-24T02:04:03.882Z,91.10
2023-03-24T02:06:33.273Z,91.40
2023-03-24T02:09:02.299Z,91.50
2023-03-24T02:11:33.468Z,91.30
2023-03-24T02:14:01.389Z,90.90
2023-03-24T02:16:43.486Z,90.50
2023-03-24T02:19:53.124Z,90.40
2023-03-24T02:23:06.586Z,90.10
2023-03-24T02:26:19.408Z,90.00
2023-03-24T02:28:56.724Z,89.70
2023-03-24T02:32:04.286Z,89.20
2023-03-24T02:34:55.078Z,87.50
2023-03-24T02:38:00.640Z,88.20
2023-03-24T02:40:37.098Z,88.40
2023-03-24T02:43:17.560Z,88.10
2023-03-24T02:45:55.655Z,87.50
2023-03-24T02:48:30.229Z,86.60
2023-03-24T02:51:06.829Z,85.80
2023-03-24T02:53:43.045Z,85.50
2023-03-24T02:56:16.248Z,85.20
2023-03-24T02:58:50.596Z,85.10
2023-03-24T03:01:32.144Z,85.30
2023-03-24T03:04:03.259Z,85.00
2023-03-24T03:06:34.383Z,85.20
2023-03-24T03:09:06.649Z,84.80
2023-03-24T03:11:36.385Z,84.80
2023-03-24T03:14:07.772Z,84.40
2023-03-24T03:16:41.251Z,84.60
2023-03-24T03:19:17.878Z,84.30
2023-03-24T03:21:49.502Z,84.50
2023-03-24T03:24:27.059Z,84.00
2023-03-24T03:27:01.141Z,83.90
2023-03-24T03:29:34.002Z,83.20
2023-03-24T03:32:07.804Z,83.00
2023-03-24T03:34:41.645Z,83.00
2023-03-24T03:37:14.476Z,83.00
2023-03-24T03:39:48.993Z,83.40
2023-03-24T03:42:18.591Z,83.10
2023-03-24T03:44:46.760Z,83.40
2023-03-24T03:47:15.418Z,83.70
2023-03-24T03:49:44.129Z,83.20
2023-03-24T03:52:12.071Z,83.70
2023-03-24T03:54:42.859Z,84.00
2023-03-24T03:57:12.009Z,84.40
2023-03-24T03:59:41.562Z,84.50
2023-03-24T04:02:27.877Z,84.60
2023-03-24T04:05:17.817Z,84.90
2023-03-24T04:08:14.472Z,84.70
2023-03-24T04:11:17.735Z,85.30
2023-03-24T04:13:55.677Z,85.40
2023-03-24T04:16:35.220Z,85.80
2023-03-24T04:19:23.269Z,86.70
2023-03-24T04:22:07.308Z,85.80
2023-03-24T04:24:49.891Z,86.10
2023-03-24T04:27:27.127Z,87.10
2023-03-24T04:30:04.245Z,87.40
2023-03-24T04:32:41.419Z,87.80
2023-03-24T04:35:14.195Z,89.80
2023-03-24T04:37:42.894Z,90.60
2023-03-24T04:40:14.779Z,91.40
2023-03-24T04:42:45.308Z,92.30
2023-03-24T04:45:13.685Z,93.00
2023-03-24T04:47:48.084Z,93.80
2023-03-24T04:50:30.274Z,95.10
2023-03-24T04:52:58.822Z,96.20
2023-03-24T04:55:44.245Z,97.10
2023-03-24T04:58:12.201Z,97.60
2023-03-24T05:00:39.899Z,98.10
2023-03-24T05:03:09.310Z,98.60
2023-03-24T05:05:37.075Z,99.10
2023-03-24T05:08:04.961Z,99.80
2023-03-24T05:10:32.666Z,99.90
2023-03-24T05:13:00.565Z,99.90
2023-03-24T05:15:28.319Z,99.90
2023-03-24T05:17:56.748Z,99.90
2023-03-24T05:20:26.969Z,99.90
2023-03-24T05:22:55.024Z,99.90
2023-03-24T05:25:24.269Z,99.90
2023-03-24T05:27:52.342Z,99.90
2023-03-24T05:30:20.683Z,99.90
2023-03-24T05:32:48.519Z,99.90
2023-03-24T05:35:16.469Z,99.90
2023-03-24T05:37:45.660Z,99.90
2023-03-24T05:40:13.629Z,99.90
2023-03-24T05:42:42.984Z,99.90
2023-03-24T05:45:12.466Z,99.90
2023-03-24T05:47:40.280Z,99.90
2023-03-24T05:50:08.815Z,99.90
2023-03-24T05:52:36.786Z,99.90
2023-03-24T05:55:07.478Z,99.90
2023-03-24T05:57:36.539Z,99.90
2023-03-24T06:00:07.835Z,99.90
2023-03-24T06:02:35.602Z,99.90
2023-03-24T06:05:03.837Z,99.90
2023-03-24T06:07:32.169Z,99.90
2023-03-24T06:10:02.798Z,99.90
2023-03-24T06:12:32.070Z,99.90
2023-03-24T06:15:00.788Z,99.90
2023-03-24T06:17:30.956Z,99.90
2023-03-24T06:20:05.087Z,99.90
2023-03-24T06:22:34.744Z,99.90
2023-03-24T06:25:02.580Z,99.90
2023-03-24T06:27:31.641Z,99.90
2023-03-24T06:29:59.765Z,99.90
2023-03-24T06:32:27.923Z,99.90
2023-03-24T06:34:56.083Z,99.90
2023-03-24T06:37:23.954Z,99.90
2023-03-24T06:39:52.099Z,99.90
2023-03-24T06:42:19.834Z,99.90
2023-03-24T06:44:48.982Z,99.90
2023-03-24T06:47:17.116Z,99.90
2023-03-24T06:49:46.321Z,99.90
2023-03-24T06:52:14.104Z,99.90
2023-03-24T06:54:42.188Z,99.90
2023-03-24T06:57:09.960Z,99.90
2023-03-24T06:59:37.793Z,99.90
2023-03-24T07:02:07.177Z,99.90
2023-03-24T07:04:36.419Z,99.90
2023-03-24T07:07:22.474Z,99.90
2023-03-24T07:09:52.081Z,99.90
2023-03-24T07:12:19.816Z,99.90
2023-03-24T07:14:47.533Z,99.90
2023-03-24T07:17:16.643Z,99.90
2023-03-24T07:19:45.460Z,99.90
2023-03-24T07:22:13.230Z,99.90
2023-03-24T07:24:40.922Z,99.90
2023-03-24T07:27:09.070Z,99.90
2023-03-24T07:29:37.311Z,99.90
2023-03-24T07:32:05.045Z,99.90
2023-03-24T07:34:35.437Z,99.90
2023-03-24T07:37:03.290Z,99.90
2023-03-24T07:39:31.076Z,99.90
2023-03-24T07:41:58.854Z,99.90
2023-03-24T07:44:27.367Z,99.90
2023-03-24T07:46:55.185Z,99.90
2023-03-24T07:49:22.999Z,99.90
2023-03-24T07:51:52.072Z,99.90
2023-03-24T07:54:19.970Z,99.90
2023-03-24T07:56:47.679Z,99.90
2023-03-24T07:59:15.512Z,99.90
2023-03-24T08:01:43.342Z,99.90
2023-03-24T08:04:12.980Z,99.90
2023-03-24T08:06:41.532Z,99.90
2023-03-24T08:09:11.737Z,99.90
2023-03-24T08:11:39.691Z,99.90
2023-03-24T08:14:07.606Z,99.90
2023-03-24T08:16:35.342Z,99.90
2023-03-24T08:19:03.159Z,99.90
2023-03-24T08:21:30.950Z,99.90
2023-03-24T08:23:58.708Z,99.90
2023-03-24T08:26:27.875Z,99.90
2023-03-24T08:28:55.653Z,99.90
2023-03-24T08:31:23.480Z,99.90
2023-03-24T08:33:51.328Z,99.90
2023-03-24T08:36:19.100Z,99.90
2023-03-24T08:38:48.099Z,99.90
2023-03-24T08:41:16.764Z,99.90
2023-03-24T08:43:46.084Z,99.90
2023-03-24T08:46:15.265Z,99.90
2023-03-24T08:48:43.776Z,99.90
2023-03-24T08:51:13.574Z,99.90
2023-03-24T08:53:41.393Z,99.90
2023-03-24T08:56:09.542Z,99.90
2023-03-24T08:58:37.334Z,99.90
2023-03-24T09:01:09.251Z,99.90
2023-03-24T09:03:40.476Z,99.90
2023-03-24T09:06:11.248Z,99.90
2023-03-24T09:08:41.240Z,99.90
2023-03-24T09:11:16.294Z,99.90
2023-03-24T09:13:46.441Z,99.90
2023-03-24T09:16:18.608Z,99.90
2023-03-24T09:18:48.679Z,99.90
2023-03-24T09:21:18.666Z,99.90
2023-03-24T09:23:48.266Z,99.90
2023-03-24T09:26:18.038Z,99.90
2023-03-24T09:28:47.675Z,99.90
2023-03-24T09:31:18.869Z,99.90
2023-03-24T09:33:48.841Z,99.90
2023-03-24T09:36:19.338Z,99.90
2023-03-24T09:38:49.204Z,99.90
2023-03-24T09:41:20.713Z,99.90
2023-03-24T09:43:54.681Z,99.90
2023-03-24T09:46:30.999Z,99.90
2023-03-24T09:49:00.755Z,99.90
2023-03-24T09:51:31.979Z,99.90
2023-03-24T09:54:14.036Z,99.90
2023-03-24T09:56:49.338Z,99.90
2023-03-24T09:59:21.451Z,99.90
2023-03-24T10:01:50.636Z,99.90
2023-03-24T10:04:20.983Z,99.90
2023-03-24T10:06:53.272Z,99.90
2023-03-24T10:09:28.603Z,99.90
2023-03-24T10:12:12.089Z,99.90
2023-03-24T10:14:51.579Z,99.90
2023-03-24T10:17:28.249Z,99.90
2023-03-24T10:20:01.502Z,99.90
2023-03-24T10:22:37.213Z,99.90
2023-03-24T10:25:13.951Z,99.90
2023-03-24T10:27:47.277Z,99.90
2023-03-24T10:30:18.226Z,99.90
2023-03-24T10:32:47.562Z,99.90
2023-03-24T10:35:22.880Z,99.90
2023-03-24T10:37:52.558Z,99.90
2023-03-24T10:40:23.623Z,99.90
2023-03-24T10:43:06.921Z,99.90
2023-03-24T10:45:40.558Z,99.90
2023-03-24T10:48:10.370Z,99.90
2023-03-24T10:50:43.482Z,99.90
2023-03-24T10:53:19.040Z,99.90
2023-03-24T10:55:48.172Z,99.90
2023-03-24T10:58:22.005Z,99.90
2023-03-24T11:00:50.423Z,99.90
2023-03-24T11:03:27.588Z,99.90
2023-03-24T11:06:00.161Z,99.90
2023-03-24T11:08:33.304Z,99.90
2023-03-24T11:11:01.341Z,99.90
2023-03-24T11:13:32.260Z,99.90
2023-03-24T11:16:11.269Z,99.90
2023-03-24T11:18:56.085Z,99.90
2023-03-24T11:21:23.942Z,99.90
2023-03-24T11:23:51.792Z,99.90
2023-03-24T11:26:21.996Z,99.90
2023-03-24T11:28:53.527Z,99.90
2023-03-24T11:31:30.612Z,99.90
2023-03-24T11:34:02.706Z,99.90
2023-03-24T11:36:55.426Z,99.90
2023-03-24T11:39:25.607Z,99.90
2023-03-24T11:42:02.674Z,99.90
2023-03-24T11:44:33.359Z,99.90
2023-03-24T11:47:05.632Z,99.90
2023-03-24T11:49:39.570Z,99.90
2023-03-24T11:52:22.050Z,99.80
2023-03-24T11:54:49.864Z,98.80
2023-03-24T11:57:25.731Z,98.60
2023-03-24T11:59:58.048Z,98.90
2023-03-24T12:02:41.580Z,98.40
2023-03-24T12:05:27.631Z,96.70
2023-03-24T12:08:08.888Z,96.20
2023-03-24T12:10:45.963Z,96.20
2023-03-24T12:13:29.972Z,95.70
2023-03-24T12:16:12.690Z,94.90
2023-03-24T12:18:52.668Z,93.60
2023-03-24T12:21:32.102Z,92.90
2023-03-24T12:24:02.356Z,92.40
2023-03-24T12:26:31.375Z,92.70
2023-03-24T12:29:17.441Z,92.50
2023-03-24T12:32:06.712Z,93.50
2023-03-24T12:34:56.879Z,92.90
2023-03-24T12:37:35.893Z,91.60
2023-03-24T12:40:21.860Z,91.10
2023-03-24T12:42:59.739Z,91.60
2023-03-24T12:45:38.815Z,91.70
2023-03-24T12:48:26.659Z,91.00
2023-03-24T12:51:07.394Z,90.00
2023-03-24T12:53:56.810Z,86.40
2023-03-24T12:56:32.831Z,85.80
2023-03-24T12:59:05.233Z,83.90
2023-03-24T13:01:36.330Z,84.00
2023-03-24T13:04:09.763Z,81.90
2023-03-24T13:06:44.848Z,75.80
2023-03-24T13:09:24.768Z,74.10
2023-03-24T13:11:58.704Z,70.40
2023-03-24T13:14:32.118Z,70.80
2023-03-24T13:17:06.956Z,71.30
2023-03-24T13:19:36.900Z,72.40
2023-03-24T13:22:07.649Z,72.20
2023-03-24T13:24:36.728Z,71.60
2023-03-24T13:27:13.263Z,71.00
2023-03-24T13:30:15.815Z,69.00
2023-03-24T13:32:46.803Z,71.80
2023-03-24T13:35:23.320Z,72.70
2023-03-24T13:37:53.926Z,72.60
2023-03-24T13:40:25.415Z,67.70
2023-03-24T13:42:57.309Z,66.10
2023-03-24T13:45:32.536Z,64.60
2023-03-24T13:48:18.157Z,63.90
2023-03-24T13:50:55.136Z,63.50
2023-03-24T13:53:31.853Z,63.20
2023-03-24T13:56:02.030Z,63.90
2023-03-24T13:58:47.816Z,63.60
2023-03-24T14:01:32.700Z,67.70
2023-03-24T14:04:23.217Z,68.40
2023-03-24T14:06:52.122Z,65.30
2023-03-24T14:09:22.777Z,68.70
2023-03-24T14:12:10.484Z,69.10
2023-03-24T14:15:14.555Z,64.40
2023-03-24T14:17:44.733Z,59.80
2023-03-24T14:20:31.524Z,58.60
2023-03-24T14:22:59.592Z,57.70
2023-03-24T14:25:30.594Z,57.50
2023-03-24T14:28:18.743Z,57.50
2023-03-24T14:31:03.040Z,58.50
2023-03-24T14:33:31.543Z,60.20
2023-03-24T14:36:04.907Z,61.80
2023-03-24T14:38:36.996Z,64.00
2023-03-24T14:41:13.540Z,64.90
2023-03-24T14:43:57.152Z,65.40
2023-03-24T14:46:37.771Z,67.30
2023-03-24T14:49:12.866Z,66.20
2023-03-24T14:51:44.326Z,65.80
2023-03-24T14:54:16.804Z,63.10
2023-03-24T14:56:48.375Z,62.60
2023-03-24T14:59:28.518Z,63.50
2023-03-24T15:02:02.112Z,67.20
2023-03-24T15:04:29.945Z,69.90
2023-03-24T15:06:57.700Z,70.40
2023-03-24T15:09:25.617Z,68.50
2023-03-24T15:11:53.819Z,67.30
2023-03-24T15:14:25.721Z,72.70
2023-03-24T15:16:59.156Z,78.50
2023-03-24T15:19:29.034Z,82.00
2023-03-24T15:22:02.599Z,85.00
2023-03-24T15:24:35.578Z,87.00
2023-03-24T15:27:33.112Z,87.50
2023-03-24T15:30:02.537Z,86.90
2023-03-24T15:32:32.771Z,87.90
2023-03-24T15:35:05.398Z,87.50
2023-03-24T15:37:35.545Z,85.80
2023-03-24T15:40:15.785Z,85.40
2023-03-24T15:42:46.178Z,84.90
2023-03-24T15:45:22.403Z,84.70
2023-03-24T15:47:52.459Z,85.50
2023-03-24T15:50:32.099Z,86.50
2023-03-24T15:53:01.540Z,86.10
2023-03-24T15:55:34.633Z,85.90
2023-03-24T15:58:15.360Z,86.60
2023-03-24T16:00:45.712Z,87.50
2023-03-24T16:03:17.536Z,89.50
2023-03-24T16:05:51.073Z,90.40
2023-03-24T16:08:27.462Z,90.90
2023-03-24T16:11:00.399Z,91.10
2023-03-24T16:13:28.613Z,91.20
2023-03-24T16:16:00.736Z,90.50
2023-03-24T16:18:32.917Z,90.80
2023-03-24T16:21:01.392Z,90.60
2023-03-24T16:23:29.640Z,90.40
2023-03-24T16:25:57.406Z,90.60
2023-03-24T16:28:25.700Z,90.70
2023-03-24T16:31:00.935Z,90.70
2023-03-24T16:33:30.260Z,90.90
2023-03-24T16:35:58.267Z,91.00
2023-03-24T16:38:26.192Z,90.20
2023-03-24T16:40:54.975Z,90.50
2023-03-24T16:43:23.252Z,90.20
2023-03-24T16:45:52.472Z,90.60
2023-03-24T16:48:21.740Z,91.10
2023-03-24T16:50:53.250Z,91.60
2023-03-24T16:53:21.174Z,90.70
2023-03-24T16:55:49.269Z,90.30
2023-03-24T16:58:18.705Z,91.00
2023-03-24T17:00:49.246Z,91.70
2023-03-24T17:03:17.898Z,91.90
2023-03-24T17:05:49.241Z,92.20
2023-03-24T17:08:18.596Z,91.50
2023-03-24T17:10:49.960Z,91.20
2023-03-24T17:13:20.095Z,90.30
2023-03-24T17:15:48.521Z,87.50
2023-03-24T17:18:17.089Z,90.00
2023-03-24T17:20:45.118Z,91.50
2023-03-24T17:23:17.790Z,92.30
2023-03-24T17:25:46.017Z,92.90
2023-03-24T17:28:14.891Z,93.80
2023-03-24T17:30:43.413Z,94.50
2023-03-24T17:33:14.109Z,95.30
2023-03-24T17:35:44.523Z,96.00
2023-03-24T17:38:16.292Z,96.50
2023-03-24T17:40:44.508Z,96.70
2023-03-24T17:43:12.307Z,97.40
2023-03-24T17:45:41.733Z,97.70
2023-03-24T17:48:09.563Z,98.10
2023-03-24T17:50:37.460Z,98.80
2023-03-24T17:53:05.285Z,99.50
2023-03-24T17:55:34.421Z,99.90
2023-03-24T17:58:02.393Z,99.90
2023-03-24T18:00:30.508Z,99.90
2023-03-24T18:02:58.624Z,99.90
2023-03-24T18:05:27.084Z,99.90
2023-03-24T18:07:54.798Z,99.90
2023-03-24T18:10:22.616Z,99.90
2023-03-24T18:12:52.538Z,99.90
2023-03-24T18:15:20.413Z,99.90
2023-03-24T18:17:48.324Z,99.90
2023-03-24T18:20:16.555Z,99.90
2023-03-24T18:22:44.382Z,99.90
2023-03-24T18:25:14.297Z,99.90
2023-03-24T18:27:43.286Z,99.90
2023-03-24T18:30:14.203Z,99.90
2023-03-24T18:32:42.901Z,99.90
2023-03-24T18:35:15.988Z,99.90
2023-03-24T18:37:44.185Z,99.90
2023-03-24T18:40:14.407Z,99.90
2023-03-24T18:42:42.180Z,99.90
2023-03-24T18:45:17.217Z,99.90
2023-03-24T18:47:45.758Z,99.90
2023-03-24T18:50:13.745Z,99.90
2023-03-24T18:52:41.525Z,99.90
2023-03-24T18:55:10.924Z,99.90
2023-03-24T18:57:38.658Z,99.90
2023-03-24T19:00:09.525Z,99.90
2023-03-24T19:02:38.717Z,99.90
2023-03-24T19:05:07.255Z,99.90
2023-03-24T19:07:37.052Z,99.90
2023-03-24T19:10:05.393Z,99.90
2023-03-24T19:12:33.360Z,99.90
2023-03-24T19:15:01.517Z,99.90
2023-03-24T19:17:29.342Z,99.90
2023-03-24T19:19:58.755Z,99.90
2023-03-24T19:22:27.173Z,99.90
2023-03-24T19:24:55.600Z,99.90
2023-03-24T19:27:23.469Z,99.90
2023-03-24T19:29:51.278Z,99.90
2023-03-24T19:32:19.048Z,99.90
2023-03-24T19:34:47.932Z,99.90
2023-03-24T19:37:17.446Z,99.90
2023-03-24T19:39:46.024Z,99.90
2023-03-24T19:42:13.795Z,99.90
2023-03-24T19:44:41.711Z,99.90
2023-03-24T19:47:09.595Z,99.90
2023-03-24T19:49:37.515Z,99.90
2023-03-24T19:52:06.372Z,99.90
2023-03-24T19:54:35.960Z,99.90
2023-03-24T19:57:04.187Z,99.90
2023-03-24T19:59:32.372Z,99.90
2023-03-24T20:02:00.707Z,99.90
2023-03-24T20:04:28.550Z,99.90
2023-03-24T20:06:58.488Z,99.90
2023-03-24T20:09:26.339Z,99.90
2023-03-24T20:11:55.673Z,99.90
2023-03-24T20:14:23.852Z,99.90
2023-03-24T20:16:51.675Z,99.90
2023-03-24T20:19:19.448Z,99.90
2023-03-24T20:21:47.277Z,99.90
2023-03-24T20:24:15.696Z,99.90
2023-03-24T20:26:43.511Z,99.90
2023-03-24T20:29:12.742Z,99.90
2023-03-24T20:31:41.746Z,99.90
2023-03-24T20:34:11.088Z,99.90
2023-03-24T20:36:41.184Z,99.90
2023-03-24T20:39:09.387Z,99.90
2023-03-24T20:41:37.157Z,99.90
2023-03-24T20:44:05.215Z,99.90
2023-03-24T20:46:34.647Z,99.90
2023-03-24T20:49:02.630Z,99.90
2023-03-24T20:51:30.513Z,99.90
2023-03-24T20:53:58.522Z,99.90
2023-03-24T20:56:26.512Z,99.90
2023-03-24T20:58:54.727Z,99.90
2023-03-24T21:01:23.929Z,99.90
2023-03-24T21:03:56.801Z,99.90
2023-03-24T21:06:27.771Z,99.90
2023-03-24T21:08:57.731Z,99.90
2023-03-24T21:11:25.667Z,99.90
2023-03-24T21:13:53.750Z,99.90
2023-03-24T21:16:21.573Z,99.90
2023-03-24T21:18:49.574Z,99.90
2023-03-24T21:21:18.732Z,99.90
2023-03-24T21:23:46.527Z,99.90
2023-03-24T21:26:16.803Z,99.90
2023-03-24T21:28:45.234Z,99.90
2023-03-24T21:31:17.918Z,99.90
2023-03-24T21:33:45.988Z,99.90
2023-03-24T21:36:14.193Z,99.90
2023-03-24T21:38:43.464Z,99.90
2023-03-24T21:41:11.672Z,99.90
2023-03-24T21:43:40.322Z,99.90
2023-03-24T21:46:14.676Z,99.90
2023-03-24T21:48:51.186Z,99.90
2023-03-24T21:51:21.128Z,99.90
2023-03-24T21:53:50.590Z,99.90
2023-03-24T21:56:20.139Z,99.90
2023-03-24T21:58:48.188Z,99.90
2023-03-24T22:01:16.082Z,99.90
2023-03-24T22:03:44.000Z,99.90
2023-03-24T22:06:11.834Z,99.90
2023-03-24T22:08:43.354Z,99.90
2023-03-24T22:11:15.312Z,99.90
2023-03-24T22:13:43.319Z,99.90
2023-03-24T22:16:11.397Z,99.90
2023-03-24T22:18:39.172Z,99.90
2023-03-24T22:21:09.303Z,99.90
2023-03-24T22:23:39.254Z,99.90
2023-03-24T22:26:09.764Z,99.90
2023-03-24T22:28:40.117Z,99.90
2023-03-24T22:31:09.509Z,99.90
2023-03-24T22:33:38.181Z,99.90
2023-03-24T22:36:07.670Z,99.90
2023-03-24T22:38:36.089Z,99.90
2023-03-24T22:41:06.297Z,99.90
2023-03-24T22:43:34.874Z,99.90
2023-03-24T22:46:04.462Z,99.90
2023-03-24T22:48:32.427Z,99.90
2023-03-24T22:51:00.340Z,99.90
2023-03-24T22:53:28.058Z,99.90
2023-03-24T22:55:55.851Z,99.90
2023-03-24T22:58:23.713Z,99.90
2023-03-24T23:00:54.997Z,99.90
2023-03-24T23:03:24.329Z,99.90
2023-03-24T23:05:52.471Z,99.90
2023-03-24T23:08:20.468Z,99.90
2023-03-24T23:10:48.783Z,99.90
2023-03-24T23:13:17.517Z,99.90
2023-03-24T23:15:45.306Z,99.90
2023-03-24T23:18:13.070Z,99.90
2023-03-24T23:20:42.742Z,99.90
2023-03-24T23:23:11.020Z,99.90
2023-03-24T23:25:40.784Z,99.90
2023-03-24T23:28:10.732Z,99.90
2023-03-24T23:30:39.428Z,99.90
2023-03-24T23:33:07.280Z,99.90
2023-03-24T23:35:37.201Z,99.90
2023-03-24T23:38:06.560Z,99.90
2023-03-24T23:40:34.380Z,99.90
2023-03-24T23:43:03.108Z,99.90
2023-03-24T23:45:30.914Z,99.90
2023-03-24T23:47:58.769Z,99.90
2023-03-24T23:50:27.971Z,99.90
2023-03-24T23:52:56.211Z,99.90
2023-03-24T23:55:26.619Z,99.90
2023-03-24T23:57:54.716Z,99.90
